sensor_id;sensor_type;location;lat;lon;timestamp;pressure;altitude;pressure_sealevel;temperature;humidity
78317;BME280;67572;50.930;18.276;2023-03-15T00:00:45;97948.09;;;1.90;81.65
78317;BME280;67572;50.930;18.276;2023-03-15T00:03:51;97948.84;;;1.92;81.37
78317;BME280;67572;50.930;18.276;2023-03-15T00:06:56;97956.81;;;1.91;80.32
78317;BME280;67572;50.930;18.276;2023-03-15T00:09:59;97954.94;;;1.93;80.80
78317;BME280;67572;50.930;18.276;2023-03-15T00:13:03;97962.88;;;1.91;80.08
78317;BME280;67572;50.930;18.276;2023-03-15T00:16:07;97992.72;;;1.89;80.03
78317;BME280;67572;50.930;18.276;2023-03-15T00:19:12;98004.13;;;1.88;80.24
78317;BME280;67572;50.930;18.276;2023-03-15T00:22:16;98024.16;;;1.89;81.16
78317;BME280;67572;50.930;18.276;2023-03-15T00:25:19;98035.56;;;1.88;81.42
78317;BME280;67572;50.930;18.276;2023-03-15T00:28:23;98043.59;;;1.85;81.10
78317;BME280;67572;50.930;18.276;2023-03-15T00:31:28;98058.50;;;1.84;80.70
78317;BME280;67572;50.930;18.276;2023-03-15T00:34:33;98046.44;;;1.80;80.94
78317;BME280;67572;50.930;18.276;2023-03-15T00:37:37;98044.00;;;1.77;80.27
78317;BME280;67572;50.930;18.276;2023-03-15T00:40:41;98041.38;;;1.77;80.16
78317;BME280;67572;50.930;18.276;2023-03-15T00:43:46;98044.75;;;1.79;80.32
78317;BME280;67572;50.930;18.276;2023-03-15T00:46:50;98039.78;;;1.75;80.52
78317;BME280;67572;50.930;18.276;2023-03-15T00:49:55;98044.94;;;1.76;80.06
78317;BME280;67572;50.930;18.276;2023-03-15T00:52:58;98045.78;;;1.77;79.93
78317;BME280;67572;50.930;18.276;2023-03-15T00:56:03;98060.72;;;1.75;79.21
78317;BME280;67572;50.930;18.276;2023-03-15T00:59:07;98069.28;;;1.78;78.94
78317;BME280;67572;50.930;18.276;2023-03-15T01:02:13;98062.50;;;1.74;78.58
78317;BME280;67572;50.930;18.276;2023-03-15T01:05:20;98072.91;;;1.76;78.85
78317;BME280;67572;50.930;18.276;2023-03-15T01:08:25;98076.50;;;1.73;77.46
78317;BME280;67572;50.930;18.276;2023-03-15T01:11:28;98094.72;;;1.76;78.54
78317;BME280;67572;50.930;18.276;2023-03-15T01:14:32;98096.41;;;1.77;78.95
78317;BME280;67572;50.930;18.276;2023-03-15T01:17:41;98103.34;;;1.78;78.72
78317;BME280;67572;50.930;18.276;2023-03-15T01:20:46;98125.25;;;1.77;79.30
78317;BME280;67572;50.930;18.276;2023-03-15T01:23:50;98139.28;;;1.76;78.84
78317;BME280;67572;50.930;18.276;2023-03-15T01:26:55;98146.03;;;1.80;78.65
78317;BME280;67572;50.930;18.276;2023-03-15T01:29:59;98148.75;;;1.79;79.42
78317;BME280;67572;50.930;18.276;2023-03-15T01:33:03;98150.31;;;1.83;78.39
78317;BME280;67572;50.930;18.276;2023-03-15T01:36:10;98151.22;;;1.82;79.07
78317;BME280;67572;50.930;18.276;2023-03-15T01:39:14;98166.09;;;1.81;78.89
78317;BME280;67572;50.930;18.276;2023-03-15T01:42:20;98174.03;;;1.80;79.11
78317;BME280;67572;50.930;18.276;2023-03-15T01:49:16;98189.66;;;1.81;78.67
78317;BME280;67572;50.930;18.276;2023-03-15T01:52:29;98189.84;;;1.78;78.08
78317;BME280;67572;50.930;18.276;2023-03-15T01:55:36;98190.69;;;1.79;77.85
78317;BME280;67572;50.930;18.276;2023-03-15T01:58:45;98203.78;;;1.79;78.18
78317;BME280;67572;50.930;18.276;2023-03-15T02:01:51;98201.41;;;1.74;77.73
78317;BME280;67572;50.930;18.276;2023-03-15T02:05:00;98201.44;;;1.73;78.16
78317;BME280;67572;50.930;18.276;2023-03-15T02:08:09;98198.34;;;1.64;77.98
78317;BME280;67572;50.930;18.276;2023-03-15T02:11:15;98206.38;;;1.61;78.61
78317;BME280;67572;50.930;18.276;2023-03-15T02:14:20;98208.13;;;1.61;77.88
78317;BME280;67572;50.930;18.276;2023-03-15T02:17:32;98213.22;;;1.64;77.97
78317;BME280;67572;50.930;18.276;2023-03-15T02:20:46;98220.78;;;1.70;77.97
78317;BME280;67572;50.930;18.276;2023-03-15T02:24:02;98234.75;;;1.71;77.57
78317;BME280;67572;50.930;18.276;2023-03-15T02:27:12;98251.31;;;1.71;78.50
78317;BME280;67572;50.930;18.276;2023-03-15T02:30:17;98261.81;;;1.71;78.48
78317;BME280;67572;50.930;18.276;2023-03-15T02:33:24;98260.94;;;1.71;78.12
78317;BME280;67572;50.930;18.276;2023-03-15T02:36:29;98253.25;;;1.67;77.80
78317;BME280;67572;50.930;18.276;2023-03-15T02:39:33;98254.16;;;1.66;77.70
78317;BME280;67572;50.930;18.276;2023-03-15T02:42:37;98274.34;;;1.64;77.48
78317;BME280;67572;50.930;18.276;2023-03-15T02:45:42;98262.06;;;1.65;77.01
78317;BME280;67572;50.930;18.276;2023-03-15T02:48:48;98277.03;;;1.63;76.44
78317;BME280;67572;50.930;18.276;2023-03-15T02:51:55;98284.19;;;1.59;77.75
78317;BME280;67572;50.930;18.276;2023-03-15T02:54:59;98284.25;;;1.58;78.43
78317;BME280;67572;50.930;18.276;2023-03-15T02:58:03;98293.94;;;1.56;78.19
78317;BME280;67572;50.930;18.276;2023-03-15T03:01:08;98304.34;;;1.57;77.88
78317;BME280;67572;50.930;18.276;2023-03-15T03:04:14;98301.31;;;1.48;78.29
78317;BME280;67572;50.930;18.276;2023-03-15T03:07:17;98305.78;;;1.46;78.54
78317;BME280;67572;50.930;18.276;2023-03-15T03:10:28;98304.09;;;1.45;78.63
78317;BME280;67572;50.930;18.276;2023-03-15T03:13:34;98321.09;;;1.34;79.03
78317;BME280;67572;50.930;18.276;2023-03-15T03:16:41;98328.19;;;1.32;79.07
78317;BME280;67572;50.930;18.276;2023-03-15T03:19:48;98331.50;;;1.36;79.47
78317;BME280;67572;50.930;18.276;2023-03-15T03:23:00;98324.72;;;1.32;79.35
78317;BME280;67572;50.930;18.276;2023-03-15T03:26:12;98330.66;;;1.35;79.11
78317;BME280;67572;50.930;18.276;2023-03-15T03:29:19;98328.59;;;1.23;79.13
78317;BME280;67572;50.930;18.276;2023-03-15T03:32:25;98334.69;;;1.24;79.26
78317;BME280;67572;50.930;18.276;2023-03-15T03:35:31;98330.56;;;1.18;79.25
78317;BME280;67572;50.930;18.276;2023-03-15T03:38:36;98334.25;;;1.14;79.53
78317;BME280;67572;50.930;18.276;2023-03-15T03:41:40;98351.84;;;1.10;79.44
78317;BME280;67572;50.930;18.276;2023-03-15T03:44:46;98352.56;;;1.14;79.36
78317;BME280;67572;50.930;18.276;2023-03-15T03:47:53;98355.31;;;1.11;79.43
78317;BME280;67572;50.930;18.276;2023-03-15T03:51:10;98353.00;;;1.03;79.57
78317;BME280;67572;50.930;18.276;2023-03-15T03:54:14;98361.97;;;0.98;79.55
78317;BME280;67572;50.930;18.276;2023-03-15T03:57:18;98362.88;;;0.97;80.00
78317;BME280;67572;50.930;18.276;2023-03-15T04:00:23;98371.53;;;0.99;79.69
78317;BME280;67572;50.930;18.276;2023-03-15T04:03:28;98377.66;;;0.98;79.45
78317;BME280;67572;50.930;18.276;2023-03-15T04:06:45;98383.03;;;0.95;79.82
78317;BME280;67572;50.930;18.276;2023-03-15T04:09:52;98382.28;;;0.93;79.46
78317;BME280;67572;50.930;18.276;2023-03-15T04:12:56;98387.69;;;0.88;79.37
78317;BME280;67572;50.930;18.276;2023-03-15T04:16:00;98389.31;;;0.91;78.78
78317;BME280;67572;50.930;18.276;2023-03-15T04:19:14;98391.28;;;0.86;79.28
78317;BME280;67572;50.930;18.276;2023-03-15T04:22:17;98393.97;;;0.84;79.03
78317;BME280;67572;50.930;18.276;2023-03-15T04:25:27;98387.16;;;0.80;79.39
78317;BME280;67572;50.930;18.276;2023-03-15T04:28:42;98377.78;;;0.74;79.45
78317;BME280;67572;50.930;18.276;2023-03-15T04:32:05;98379.84;;;0.66;79.33
78317;BME280;67572;50.930;18.276;2023-03-15T04:35:25;98380.78;;;0.65;79.39
78317;BME280;67572;50.930;18.276;2023-03-15T04:38:52;98381.84;;;0.61;79.81
78317;BME280;67572;50.930;18.276;2023-03-15T04:42:34;98391.56;;;0.58;80.05
78317;BME280;67572;50.930;18.276;2023-03-15T04:46:09;98395.88;;;0.59;80.02
78317;BME280;67572;50.930;18.276;2023-03-15T04:49:40;98399.09;;;0.65;79.95
78317;BME280;67572;50.930;18.276;2023-03-15T04:53:15;98410.78;;;0.57;80.16
78317;BME280;67572;50.930;18.276;2023-03-15T04:56:21;98408.28;;;0.53;80.27
78317;BME280;67572;50.930;18.276;2023-03-15T04:59:50;98410.84;;;0.55;80.21
78317;BME280;67572;50.930;18.276;2023-03-15T05:03:33;98434.19;;;0.60;79.90
78317;BME280;67572;50.930;18.276;2023-03-15T05:06:54;98441.38;;;0.54;80.47
78317;BME280;67572;50.930;18.276;2023-03-15T05:10:18;98436.09;;;0.56;80.11
78317;BME280;67572;50.930;18.276;2023-03-15T05:13:41;98428.31;;;0.54;80.61
78317;BME280;67572;50.930;18.276;2023-03-15T05:16:59;98422.22;;;0.54;80.46
78317;BME280;67572;50.930;18.276;2023-03-15T05:20:26;98431.94;;;0.50;80.60
78317;BME280;67572;50.930;18.276;2023-03-15T05:23:48;98429.81;;;0.38;81.04
78317;BME280;67572;50.930;18.276;2023-03-15T05:27:11;98438.00;;;0.29;81.24
78317;BME280;67572;50.930;18.276;2023-03-15T05:30:38;98449.31;;;0.30;81.46
78317;BME280;67572;50.930;18.276;2023-03-15T05:34:03;98450.34;;;0.25;81.29
78317;BME280;67572;50.930;18.276;2023-03-15T05:37:30;98459.09;;;0.24;81.27
78317;BME280;67572;50.930;18.276;2023-03-15T05:40:52;98466.81;;;0.27;81.20
78317;BME280;67572;50.930;18.276;2023-03-15T05:44:23;98473.94;;;0.24;81.47
78317;BME280;67572;50.930;18.276;2023-03-15T05:47:53;98479.03;;;0.27;81.07
78317;BME280;67572;50.930;18.276;2023-03-15T05:51:26;98483.28;;;0.30;81.34
78317;BME280;67572;50.930;18.276;2023-03-15T05:54:43;98482.41;;;0.31;81.22
78317;BME280;67572;50.930;18.276;2023-03-15T05:58:13;98482.13;;;0.38;81.23
78317;BME280;67572;50.930;18.276;2023-03-15T06:01:49;98481.69;;;0.49;80.93
78317;BME280;67572;50.930;18.276;2023-03-15T06:04:59;98479.03;;;0.50;80.75
78317;BME280;67572;50.930;18.276;2023-03-15T06:08:04;98471.91;;;0.54;80.51
78317;BME280;67572;50.930;18.276;2023-03-15T06:11:42;98483.78;;;0.63;80.36
78317;BME280;67572;50.930;18.276;2023-03-15T06:14:50;98481.72;;;0.71;80.12
78317;BME280;67572;50.930;18.276;2023-03-15T06:17:55;98485.59;;;0.82;79.45
78317;BME280;67572;50.930;18.276;2023-03-15T06:20:59;98497.66;;;0.87;79.20
78317;BME280;67572;50.930;18.276;2023-03-15T06:24:03;98510.50;;;0.93;79.36
78317;BME280;67572;50.930;18.276;2023-03-15T06:27:09;98521.69;;;0.96;78.87
78317;BME280;67572;50.930;18.276;2023-03-15T06:30:13;98534.84;;;0.95;78.46
78317;BME280;67572;50.930;18.276;2023-03-15T06:33:20;98550.09;;;1.07;78.57
78317;BME280;67572;50.930;18.276;2023-03-15T06:36:26;98553.19;;;1.17;78.39
78317;BME280;67572;50.930;18.276;2023-03-15T06:39:31;98556.91;;;1.11;78.04
78317;BME280;67572;50.930;18.276;2023-03-15T06:42:36;98566.22;;;1.18;77.79
78317;BME280;67572;50.930;18.276;2023-03-15T06:45:41;98570.44;;;1.22;77.62
78317;BME280;67572;50.930;18.276;2023-03-15T06:48:47;98577.66;;;1.16;77.77
78317;BME280;67572;50.930;18.276;2023-03-15T06:51:52;98587.41;;;1.12;77.10
78317;BME280;67572;50.930;18.276;2023-03-15T06:54:56;98592.34;;;1.20;77.35
78317;BME280;67572;50.930;18.276;2023-03-15T06:58:00;98590.47;;;1.23;77.38
78317;BME280;67572;50.930;18.276;2023-03-15T07:01:03;98589.53;;;1.24;77.74
78317;BME280;67572;50.930;18.276;2023-03-15T07:04:08;98594.00;;;1.22;77.03
78317;BME280;67572;50.930;18.276;2023-03-15T07:07:13;98592.88;;;1.28;77.50
78317;BME280;67572;50.930;18.276;2023-03-15T07:10:17;98605.31;;;1.23;76.54
78317;BME280;67572;50.930;18.276;2023-03-15T07:13:22;98611.47;;;1.22;76.48
78317;BME280;67572;50.930;18.276;2023-03-15T07:16:25;98619.19;;;1.25;76.76
78317;BME280;67572;50.930;18.276;2023-03-15T07:19:30;98617.97;;;1.33;76.86
78317;BME280;67572;50.930;18.276;2023-03-15T07:22:36;98623.75;;;1.42;77.44
78317;BME280;67572;50.930;18.276;2023-03-15T07:25:40;98627.38;;;1.39;77.04
78317;BME280;67572;50.930;18.276;2023-03-15T07:28:55;98637.06;;;1.37;75.99
78317;BME280;67572;50.930;18.276;2023-03-15T07:31:59;98638.53;;;1.44;75.85
78317;BME280;67572;50.930;18.276;2023-03-15T07:35:05;98635.59;;;1.52;75.12
78317;BME280;67572;50.930;18.276;2023-03-15T07:38:09;98647.81;;;1.73;75.35
78317;BME280;67572;50.930;18.276;2023-03-15T07:41:13;98659.13;;;1.75;75.29
78317;BME280;67572;50.930;18.276;2023-03-15T07:44:28;98662.38;;;1.58;74.28
78317;BME280;67572;50.930;18.276;2023-03-15T07:47:32;98657.81;;;1.63;74.72
78317;BME280;67572;50.930;18.276;2023-03-15T07:50:37;98662.28;;;1.83;74.04
78317;BME280;67572;50.930;18.276;2023-03-15T07:53:41;98663.75;;;1.89;73.99
78317;BME280;67572;50.930;18.276;2023-03-15T07:56:44;98671.81;;;2.06;73.88
78317;BME280;67572;50.930;18.276;2023-03-15T07:59:48;98667.31;;;1.88;73.69
78317;BME280;67572;50.930;18.276;2023-03-15T08:02:53;98670.47;;;1.96;73.41
78317;BME280;67572;50.930;18.276;2023-03-15T08:05:58;98679.00;;;2.01;73.54
78317;BME280;67572;50.930;18.276;2023-03-15T08:09:02;98675.81;;;2.15;73.61
78317;BME280;67572;50.930;18.276;2023-03-15T08:12:08;98683.38;;;2.22;73.24
78317;BME280;67572;50.930;18.276;2023-03-15T08:15:12;98681.19;;;2.32;73.36
78317;BME280;67572;50.930;18.276;2023-03-15T08:18:17;98683.53;;;2.18;72.60
78317;BME280;67572;50.930;18.276;2023-03-15T08:21:23;98684.38;;;2.18;71.76
78317;BME280;67572;50.930;18.276;2023-03-15T08:24:26;98692.66;;;2.09;71.55
78317;BME280;67572;50.930;18.276;2023-03-15T08:27:30;98696.94;;;2.12;72.37
78317;BME280;67572;50.930;18.276;2023-03-15T08:30:34;98693.31;;;2.14;72.14
78317;BME280;67572;50.930;18.276;2023-03-15T08:33:38;98705.06;;;2.26;70.97
78317;BME280;67572;50.930;18.276;2023-03-15T08:36:45;98709.09;;;2.35;71.19
78317;BME280;67572;50.930;18.276;2023-03-15T08:39:49;98716.50;;;2.45;71.95
78317;BME280;67572;50.930;18.276;2023-03-15T08:42:58;98712.63;;;2.54;71.15
78317;BME280;67572;50.930;18.276;2023-03-15T08:46:02;98714.13;;;2.60;70.74
78317;BME280;67572;50.930;18.276;2023-03-15T08:49:06;98717.75;;;2.57;70.73
78317;BME280;67572;50.930;18.276;2023-03-15T08:52:11;98721.09;;;2.61;69.37
78317;BME280;67572;50.930;18.276;2023-03-15T08:55:18;98724.22;;;2.48;68.04
78317;BME280;67572;50.930;18.276;2023-03-15T08:58:22;98734.41;;;2.56;68.78
78317;BME280;67572;50.930;18.276;2023-03-15T09:01:28;98734.69;;;2.50;68.44
78317;BME280;67572;50.930;18.276;2023-03-15T09:04:33;98735.78;;;2.44;67.85
78317;BME280;67572;50.930;18.276;2023-03-15T09:07:38;98747.00;;;2.48;67.85
78317;BME280;67572;50.930;18.276;2023-03-15T09:10:44;98754.94;;;2.46;67.65
78317;BME280;67572;50.930;18.276;2023-03-15T09:13:47;98754.44;;;2.59;68.43
78317;BME280;67572;50.930;18.276;2023-03-15T09:16:51;98755.28;;;2.59;68.25
78317;BME280;67572;50.930;18.276;2023-03-15T09:19:55;98758.47;;;2.86;68.81
78317;BME280;67572;50.930;18.276;2023-03-15T09:23:00;98754.16;;;2.85;68.96
78317;BME280;67572;50.930;18.276;2023-03-15T09:26:04;98762.63;;;2.92;68.78
78317;BME280;67572;50.930;18.276;2023-03-15T09:29:07;98764.91;;;2.79;67.97
78317;BME280;67572;50.930;18.276;2023-03-15T09:32:11;98772.00;;;2.77;67.61
78317;BME280;67572;50.930;18.276;2023-03-15T09:35:16;98774.19;;;2.88;66.73
78317;BME280;67572;50.930;18.276;2023-03-15T09:38:23;98774.75;;;2.94;65.65
78317;BME280;67572;50.930;18.276;2023-03-15T09:41:42;98766.66;;;2.80;64.99
78317;BME280;67572;50.930;18.276;2023-03-15T09:44:51;98758.38;;;2.89;66.92
78317;BME280;67572;50.930;18.276;2023-03-15T09:48:03;98761.56;;;2.96;66.21
78317;BME280;67572;50.930;18.276;2023-03-15T09:51:13;98775.94;;;3.08;66.22
78317;BME280;67572;50.930;18.276;2023-03-15T09:54:22;98774.22;;;3.06;64.47
78317;BME280;67572;50.930;18.276;2023-03-15T09:57:35;98776.94;;;3.24;64.77
78317;BME280;67572;50.930;18.276;2023-03-15T10:00:43;98785.53;;;3.48;67.10
78317;BME280;67572;50.930;18.276;2023-03-15T10:03:48;98772.13;;;3.15;64.56
78317;BME280;67572;50.930;18.276;2023-03-15T10:06:54;98780.75;;;3.37;64.81
78317;BME280;67572;50.930;18.276;2023-03-15T10:10:00;98774.31;;;3.24;63.74
78317;BME280;67572;50.930;18.276;2023-03-15T10:13:19;98776.75;;;3.47;64.36
78317;BME280;67572;50.930;18.276;2023-03-15T10:16:31;98778.78;;;3.42;63.80
78317;BME280;67572;50.930;18.276;2023-03-15T10:19:47;98780.44;;;3.64;62.41
78317;BME280;67572;50.930;18.276;2023-03-15T10:22:56;98775.44;;;3.57;63.35
78317;BME280;67572;50.930;18.276;2023-03-15T10:26:04;98771.50;;;3.47;62.92
78317;BME280;67572;50.930;18.276;2023-03-15T10:29:13;98774.81;;;3.71;63.09
78317;BME280;67572;50.930;18.276;2023-03-15T10:32:19;98773.28;;;3.47;62.55
78317;BME280;67572;50.930;18.276;2023-03-15T10:35:28;98783.59;;;3.51;62.68
78317;BME280;67572;50.930;18.276;2023-03-15T10:38:32;98789.97;;;3.46;63.56
78317;BME280;67572;50.930;18.276;2023-03-15T10:41:38;98777.22;;;3.57;62.59
78317;BME280;67572;50.930;18.276;2023-03-15T10:44:42;98786.72;;;3.59;62.14
78317;BME280;67572;50.930;18.276;2023-03-15T10:47:47;98793.13;;;3.54;61.16
78317;BME280;67572;50.930;18.276;2023-03-15T10:51:04;98793.69;;;3.60;62.42
78317;BME280;67572;50.930;18.276;2023-03-15T10:54:14;98794.69;;;3.58;60.42
78317;BME280;67572;50.930;18.276;2023-03-15T10:57:23;98793.13;;;3.73;62.76
78317;BME280;67572;50.930;18.276;2023-03-15T11:00:31;98797.25;;;3.97;63.39
78317;BME280;67572;50.930;18.276;2023-03-15T11:03:36;98805.69;;;4.04;63.49
78317;BME280;67572;50.930;18.276;2023-03-15T11:06:42;98802.94;;;3.88;63.27
78317;BME280;67572;50.930;18.276;2023-03-15T11:09:51;98795.00;;;3.71;61.15
78317;BME280;67572;50.930;18.276;2023-03-15T11:13:10;98796.47;;;3.57;61.01
78317;BME280;67572;50.930;18.276;2023-03-15T11:16:20;98791.41;;;3.90;61.49
78317;BME280;67572;50.930;18.276;2023-03-15T11:19:26;98791.47;;;4.08;61.89
78317;BME280;67572;50.930;18.276;2023-03-15T11:22:31;98791.28;;;3.94;62.55
78317;BME280;67572;50.930;18.276;2023-03-15T11:25:34;98795.13;;;3.86;61.48
78317;BME280;67572;50.930;18.276;2023-03-15T11:28:48;98793.28;;;3.88;61.73
78317;BME280;67572;50.930;18.276;2023-03-15T11:31:54;98791.63;;;4.05;60.62
78317;BME280;67572;50.930;18.276;2023-03-15T11:35:02;98791.47;;;4.08;60.87
78317;BME280;67572;50.930;18.276;2023-03-15T11:38:13;98790.94;;;4.01;61.48
78317;BME280;67572;50.930;18.276;2023-03-15T11:41:28;98780.19;;;3.87;58.87
78317;BME280;67572;50.930;18.276;2023-03-15T11:44:49;98784.59;;;4.23;59.43
78317;BME280;67572;50.930;18.276;2023-03-15T11:48:33;98783.75;;;4.22;59.87
78317;BME280;67572;50.930;18.276;2023-03-15T11:51:42;98782.81;;;4.42;59.13
78317;BME280;67572;50.930;18.276;2023-03-15T11:54:46;98787.66;;;4.32;58.83
78317;BME280;67572;50.930;18.276;2023-03-15T11:57:50;98796.78;;;4.79;61.40
78317;BME280;67572;50.930;18.276;2023-03-15T12:01:00;98797.63;;;4.62;58.70
78317;BME280;67572;50.930;18.276;2023-03-15T12:04:27;98797.78;;;4.76;58.17
78317;BME280;67572;50.930;18.276;2023-03-15T12:07:37;98793.75;;;4.86;59.43
78317;BME280;67572;50.930;18.276;2023-03-15T12:10:44;98788.22;;;4.91;58.77
78317;BME280;67572;50.930;18.276;2023-03-15T12:14:02;98793.38;;;4.77;59.57
78317;BME280;67572;50.930;18.276;2023-03-15T12:17:37;98783.44;;;4.64;58.00
78317;BME280;67572;50.930;18.276;2023-03-15T12:20:50;98781.66;;;4.82;57.80
78317;BME280;67572;50.930;18.276;2023-03-15T12:23:58;98785.06;;;4.67;56.28
78317;BME280;67572;50.930;18.276;2023-03-15T12:27:04;98790.56;;;4.80;57.64
78317;BME280;67572;50.930;18.276;2023-03-15T12:30:19;98783.75;;;4.93;56.50
78317;BME280;67572;50.930;18.276;2023-03-15T12:33:26;98796.81;;;5.12;58.24
78317;BME280;67572;50.930;18.276;2023-03-15T12:36:34;98797.06;;;5.07;56.32
78317;BME280;67572;50.930;18.276;2023-03-15T12:39:45;98797.44;;;5.17;57.87
78317;BME280;67572;50.930;18.276;2023-03-15T12:43:00;98797.84;;;4.92;56.23
78317;BME280;67572;50.930;18.276;2023-03-15T12:46:04;98809.56;;;4.86;56.25
78317;BME280;67572;50.930;18.276;2023-03-15T12:49:12;98801.72;;;4.85;56.48
78317;BME280;67572;50.930;18.276;2023-03-15T12:52:37;98798.00;;;4.71;55.97
78317;BME280;67572;50.930;18.276;2023-03-15T12:55:42;98804.66;;;4.79;55.80
78317;BME280;67572;50.930;18.276;2023-03-15T12:58:50;98807.69;;;4.71;55.16
78317;BME280;67572;50.930;18.276;2023-03-15T13:01:56;98799.41;;;4.61;54.93
78317;BME280;67572;50.930;18.276;2023-03-15T13:05:15;98814.75;;;4.70;55.15
78317;BME280;67572;50.930;18.276;2023-03-15T13:08:21;98818.44;;;4.49;55.19
78317;BME280;67572;50.930;18.276;2023-03-15T13:11:29;98820.22;;;4.66;56.34
78317;BME280;67572;50.930;18.276;2023-03-15T13:14:41;98820.22;;;4.83;55.16
78317;BME280;67572;50.930;18.276;2023-03-15T13:17:49;98815.44;;;4.74;54.14
78317;BME280;67572;50.930;18.276;2023-03-15T13:21:04;98833.72;;;4.94;56.39
78317;BME280;67572;50.930;18.276;2023-03-15T13:24:18;98826.59;;;4.96;55.59
78317;BME280;67572;50.930;18.276;2023-03-15T13:27:34;98833.19;;;4.88;54.67
78317;BME280;67572;50.930;18.276;2023-03-15T13:30:41;98831.38;;;5.06;55.00
78317;BME280;67572;50.930;18.276;2023-03-15T13:33:50;98825.59;;;4.99;53.79
78317;BME280;67572;50.930;18.276;2023-03-15T13:36:59;98834.31;;;4.82;54.60
78317;BME280;67572;50.930;18.276;2023-03-15T13:40:11;98838.31;;;5.08;54.55
78317;BME280;67572;50.930;18.276;2023-03-15T13:43:15;98833.16;;;5.05;53.38
78317;BME280;67572;50.930;18.276;2023-03-15T13:46:20;98843.31;;;5.30;55.30
78317;BME280;67572;50.930;18.276;2023-03-15T13:49:30;98839.13;;;5.26;54.11
78317;BME280;67572;50.930;18.276;2023-03-15T13:52:35;98840.41;;;5.52;55.28
78317;BME280;67572;50.930;18.276;2023-03-15T13:55:39;98843.69;;;5.40;55.38
78317;BME280;67572;50.930;18.276;2023-03-15T13:58:43;98843.63;;;5.74;54.39
78317;BME280;67572;50.930;18.276;2023-03-15T14:01:48;98843.78;;;5.04;53.17
78317;BME280;67572;50.930;18.276;2023-03-15T14:04:57;98842.47;;;5.29;54.56
78317;BME280;67572;50.930;18.276;2023-03-15T14:08:06;98846.34;;;5.05;53.51
78317;BME280;67572;50.930;18.276;2023-03-15T14:11:20;98839.75;;;5.14;53.96
78317;BME280;67572;50.930;18.276;2023-03-15T14:14:36;98852.97;;;5.80;53.36
78317;BME280;67572;50.930;18.276;2023-03-15T14:17:51;98838.50;;;5.38;53.20
78317;BME280;67572;50.930;18.276;2023-03-15T14:20:58;98851.00;;;5.68;53.41
78317;BME280;67572;50.930;18.276;2023-03-15T14:24:07;98854.63;;;5.65;52.98
78317;BME280;67572;50.930;18.276;2023-03-15T14:27:15;98845.97;;;6.12;53.25
78317;BME280;67572;50.930;18.276;2023-03-15T14:30:24;98848.50;;;5.82;50.98
78317;BME280;67572;50.930;18.276;2023-03-15T14:33:31;98845.44;;;5.56;52.26
78317;BME280;67572;50.930;18.276;2023-03-15T14:36:41;98855.94;;;5.74;54.72
78317;BME280;67572;50.930;18.276;2023-03-15T14:39:46;98851.09;;;5.99;54.28
78317;BME280;67572;50.930;18.276;2023-03-15T14:42:50;98862.09;;;5.74;54.23
78317;BME280;67572;50.930;18.276;2023-03-15T14:45:53;98848.97;;;5.89;53.72
78317;BME280;67572;50.930;18.276;2023-03-15T14:48:57;98854.41;;;5.70;52.75
78317;BME280;67572;50.930;18.276;2023-03-15T14:52:02;98860.63;;;5.51;52.67
78317;BME280;67572;50.930;18.276;2023-03-15T14:55:14;98856.03;;;5.72;52.81
78317;BME280;67572;50.930;18.276;2023-03-15T14:58:20;98864.06;;;5.87;53.08
78317;BME280;67572;50.930;18.276;2023-03-15T15:01:25;98863.59;;;5.96;52.66
78317;BME280;67572;50.930;18.276;2023-03-15T15:04:32;98865.75;;;5.88;52.38
78317;BME280;67572;50.930;18.276;2023-03-15T15:07:38;98865.50;;;5.76;51.50
78317;BME280;67572;50.930;18.276;2023-03-15T15:10:45;98863.81;;;5.58;52.30
78317;BME280;67572;50.930;18.276;2023-03-15T15:13:50;98870.22;;;5.37;53.38
78317;BME280;67572;50.930;18.276;2023-03-15T15:16:53;98873.69;;;5.20;55.20
78317;BME280;67572;50.930;18.276;2023-03-15T15:19:57;98875.72;;;4.97;56.39
78317;BME280;67572;50.930;18.276;2023-03-15T15:23:01;98885.78;;;4.89;59.28
78317;BME280;67572;50.930;18.276;2023-03-15T15:26:13;98892.59;;;4.76;57.83
78317;BME280;67572;50.930;18.276;2023-03-15T15:29:18;98887.63;;;4.70;58.45
78317;BME280;67572;50.930;18.276;2023-03-15T15:32:22;98886.06;;;4.66;58.82
78317;BME280;67572;50.930;18.276;2023-03-15T15:35:26;98892.53;;;4.59;58.81
78317;BME280;67572;50.930;18.276;2023-03-15T15:38:31;98895.81;;;4.64;59.99
78317;BME280;67572;50.930;18.276;2023-03-15T15:41:41;98891.84;;;4.55;59.52
78317;BME280;67572;50.930;18.276;2023-03-15T15:44:44;98894.69;;;4.69;59.35
78317;BME280;67572;50.930;18.276;2023-03-15T15:47:49;98895.91;;;4.62;58.80
78317;BME280;67572;50.930;18.276;2023-03-15T15:50:52;98897.59;;;4.63;59.01
78317;BME280;67572;50.930;18.276;2023-03-15T15:53:58;98899.16;;;4.67;58.36
78317;BME280;67572;50.930;18.276;2023-03-15T15:57:05;98913.03;;;4.71;58.67
78317;BME280;67572;50.930;18.276;2023-03-15T16:00:13;98919.22;;;4.70;59.00
78317;BME280;67572;50.930;18.276;2023-03-15T16:03:19;98915.94;;;4.84;59.97
78317;BME280;67572;50.930;18.276;2023-03-15T16:06:22;98911.91;;;4.77;59.61
78317;BME280;67572;50.930;18.276;2023-03-15T16:09:27;98916.34;;;4.74;58.49
78317;BME280;67572;50.930;18.276;2023-03-15T16:12:34;98923.66;;;4.69;59.26
78317;BME280;67572;50.930;18.276;2023-03-15T16:15:38;98916.13;;;4.62;59.26
78317;BME280;67572;50.930;18.276;2023-03-15T16:18:42;98924.94;;;4.42;60.54
78317;BME280;67572;50.930;18.276;2023-03-15T16:21:48;98929.44;;;4.40;60.49
78317;BME280;67572;50.930;18.276;2023-03-15T16:24:56;98923.59;;;4.33;60.52
78317;BME280;67572;50.930;18.276;2023-03-15T16:28:04;98930.78;;;4.30;61.21
78317;BME280;67572;50.930;18.276;2023-03-15T16:31:09;98927.66;;;4.03;62.57
78317;BME280;67572;50.930;18.276;2023-03-15T16:34:14;98938.25;;;4.01;62.09
78317;BME280;67572;50.930;18.276;2023-03-15T16:37:20;98940.72;;;3.85;63.47
78317;BME280;67572;50.930;18.276;2023-03-15T16:40:26;98943.78;;;3.75;63.56
78317;BME280;67572;50.930;18.276;2023-03-15T16:43:34;98951.16;;;3.67;63.50